Terminal Aerodrome Forecast
Issued by NWS

Home | Current Version | Previous Version | Text Only | Print | Product List | Glossary On
Versions: 1 2 3 4 5 6 7 8 9 10 11 12 13 14 15 16 17 18 19 20
252
FTPA31 PHFO 182320
TAFHTO
TAF
PHTO 182320Z 1900/1924 11010KT P6SM SCT025 BKN040
     FM190600 22005KT P6SM VCSH SCT020 BKN035
     FM192000 05007KT P6SM VCSH SCT020 BKN035=

USA.gov is the U.S. government's official web portal to all federal, state and local government web resources and services.